EDT,Max TemperatureF,Mean TemperatureF,Min TemperatureF,Max Dew PointF,MeanDew PointF,Min DewpointF,Max Humidity, Mean Humidity, Min Humidity, Max Sea Level PressureIn, Mean Sea Level PressureIn, Min Sea Level PressureIn, Max VisibilityMiles, Mean VisibilityMiles, Min VisibilityMiles, Max Wind SpeedMPH, Mean Wind SpeedMPH, Max Gust SpeedMPH,PrecipitationIn, CloudCover, Events, WindDirDegrees
2013-9-1,77,74,71,73,72,70,100,96,89,29.91,29.89,29.87,7,6,3,14,9,20,0.00,6,,208
2013-9-2,75,73,71,75,73,72,100,98,94,29.84,29.80,29.75,10,3,0,12,7,,0.00,7,Fog-Rain,207
2013-9-3,75,70,66,73,69,64,100,95,88,29.87,29.80,29.76,10,3,0,10,5,20,0.00,4,Fog-Rain-Thunderstorm,256
2013-9-4,77,70,64,66,61,57,100,74,50,29.98,29.96,29.94,10,10,10,12,6,,0.00,0,,304
2013-9-5,89,76,62,66,57,48,94,66,29,30.14,30.02,29.95,10,10,10,12,5,,0.00,2,,325
2013-9-6,66,60,51,63,49,43,88,64,45,30.25,30.20,30.16,10,10,10,9,4,,0.00,0,,98
2013-9-7,71,60,48,59,54,46,94,68,46,30.12,30.01,29.94,10,10,10,16,7,,0.00,1,,249
2013-9-8,77,72,62,64,57,45,88,63,49,30.08,29.89,29.81,10,10,10,14,7,20,0.00,1,,317
2013-9-9,66,58,50,52,49,45,88,65,46,30.26,30.23,30.20,10,10,10,9,3,,0.00,1,,210
2013-9-10,73,71,69,70,68,66,100,91,83,30.20,30.14,30.10,10,8,3,18,14,29,0.00,6,,228
2013-9-11,78,74,69,73,72,70,100,87,78,30.14,30.09,30.04,10,7,3,14,10,,0.00,0,,232
2013-9-12,75,72,69,72,71,68,100,93,88,29.98,29.85,29.74,8,6,2,15,12,22,0.00,6,Rain-Thunderstorm,226
2013-9-13,75,72,66,68,66,61,100,85,73,29.76,29.67,29.64,10,9,4,10,4,,0.00,4,Rain,297
2013-9-14,66,62,57,54,53,52,82,73,64,30.08,29.99,29.92,10,10,10,14,9,,0.00,1,,327
2013-9-15,64,56,48,54,51,46,94,72,56,30.20,30.17,30.12,10,10,10,12,3,,0.00,0,,271
2013-9-16,66,62,57,63,56,52,94,77,68,30.20,30.10,30.05,10,10,10,8,3,15,0.00,4,,2
2013-9-17,60,53,44,45,42,39,87,66,51,30.42,30.38,30.35,10,10,10,12,6,,0.00,0,,38
2013-9-18,68,54,41,52,48,39,93,66,46,30.34,30.28,30.22,10,10,10,12,3,,0.00,0,,249
2013-9-19,69,64,57,57,55,54,88,75,56,30.18,30.12,30.10,10,10,10,16,8,,0.00,0,,236
2013-9-20,71,60,48,63,59,48,100,80,60,30.11,30.08,30.05,10,10,10,12,5,,0.00,0,,216
2013-9-21,73,73,71,66,66,66,83,80,78,29.90,29.86,29.83,10,10,10,16,16,,0.00,2,,170
2013-9-22,69,66,62,63,60,54,100,80,60,29.76,29.73,29.71,10,10,10,14,6,,0.00,5,Rain,318
2013-9-23,62,58,55,55,48,45,94,70,55,29.99,29.97,29.94,10,10,10,12,10,,0.00,0,,337
2013-9-24,66,58,51,52,48,43,71,64,59,30.01,29.90,29.86,10,10,10,14,10,24,0.00,0,,314
2013-9-25,68,59,50,61,52,46,94,73,46,29.95,29.93,29.90,10,10,10,12,4,,0.00,0,,316
2013-9-26,62,60,59,54,52,50,82,73,63,30.06,30.04,30.01,10,10,10,5,3,,0.00,6,,-1
2013-9-27,64,60,53,55,54,52,94,78,68,30.27,30.23,30.19,10,10,10,7,3,,0.00,6,,10
2013-9-28,69,60,51,57,55,52,100,73,56,30.33,30.29,30.27,10,10,10,9,4,,0.00,0,,73
2013-9-29,62,54,46,55,52,45,94,77,63,30.23,30.19,30.12,10,10,10,10,3,,0.00,0,,73
2013-9-30,66,58,51,57,55,48,100,85,68,30.11,30.04,30.00,10,10,8,7,3,,0.00,2,,28